createdAt,value
2016-10-21T00:04:44.829Z,1008.19
2016-10-21T00:09:41.694Z,1008.17
2016-10-21T00:14:38.233Z,1008.27
2016-10-21T00:19:35.393Z,1008.18
2016-10-21T00:24:32.931Z,1008.22
2016-10-21T00:29:29.212Z,1008.20
2016-10-21T00:34:25.853Z,1008.19
2016-10-21T00:39:21.933Z,1008.17
2016-10-21T00:44:17.955Z,1008.09
2016-10-21T00:49:14.335Z,1008.10
2016-10-21T00:54:11.995Z,1008.12
2016-10-21T00:59:08.010Z,1008.09
2016-10-21T01:04:04.051Z,1008.14
2016-10-21T01:09:00.570Z,1008.07
2016-10-21T01:13:58.336Z,1007.91
2016-10-21T01:18:54.417Z,1008.03
2016-10-21T01:23:50.746Z,1008.10
2016-10-21T01:28:47.577Z,1008.09
2016-10-21T01:33:44.298Z,1008.07
2016-10-21T01:38:41.535Z,1008.04
2016-10-21T01:43:38.037Z,1008.20
2016-10-21T01:48:34.480Z,1008.18
2016-10-21T01:53:31.020Z,1008.19
2016-10-21T01:58:27.882Z,1008.08
2016-10-21T02:03:23.959Z,1008.15
2016-10-21T02:08:20.803Z,1008.14
2016-10-21T02:13:17.604Z,1008.28
2016-10-21T02:18:17.283Z,1008.18
2016-10-21T02:23:12.777Z,1008.17
2016-10-21T02:28:09.625Z,1008.20
2016-10-21T02:33:05.956Z,1008.11
2016-10-21T02:38:02.516Z,1008.16
2016-10-21T02:42:58.602Z,1008.14
2016-10-21T02:47:55.403Z,1008.14
2016-10-21T02:52:51.504Z,1008.16
2016-10-21T02:57:48.624Z,1008.07
2016-10-21T03:02:45.061Z,1008.04
2016-10-21T03:07:41.787Z,1008.00
2016-10-21T03:12:39.403Z,1008.25
2016-10-21T03:17:35.974Z,1008.19
2016-10-21T03:22:32.457Z,1008.15
2016-10-21T03:27:28.931Z,1008.15
2016-10-21T03:32:25.622Z,1008.15
2016-10-21T03:37:22.043Z,1008.14
2016-10-21T03:47:21.113Z,1008.09
2016-10-21T03:52:19.405Z,1008.19
2016-10-21T03:57:15.432Z,1008.14
2016-10-21T04:02:11.917Z,1008.16
2016-10-21T04:07:08.800Z,1008.21
2016-10-21T04:12:05.230Z,1008.22
2016-10-21T04:17:01.609Z,1008.15
2016-10-21T04:21:58.049Z,1008.14
2016-10-21T04:26:54.207Z,1008.17
2016-10-21T04:31:50.467Z,1008.13
2016-10-21T04:36:46.895Z,1008.11
2016-10-21T04:41:43.481Z,1008.20
2016-10-21T04:46:39.931Z,1008.14
2016-10-21T04:51:36.579Z,1008.02
2016-10-21T04:56:32.793Z,1008.14
2016-10-21T05:01:29.415Z,1008.06
2016-10-21T05:06:25.857Z,1008.04
2016-10-21T05:11:22.711Z,1008.12
2016-10-21T05:16:19.262Z,1008.13
2016-10-21T05:21:15.630Z,1008.12
2016-10-21T05:26:11.991Z,1008.15
2016-10-21T05:31:08.434Z,1008.25
2016-10-21T05:36:04.851Z,1008.19
2016-10-21T05:41:01.283Z,1008.33
2016-10-21T05:45:57.680Z,1008.29
2016-10-21T05:50:54.477Z,1008.35
2016-10-21T05:55:51.639Z,1008.31
2016-10-21T06:00:48.056Z,1008.40
2016-10-21T06:05:44.624Z,1008.44
2016-10-21T06:10:40.987Z,1008.43
2016-10-21T06:15:38.541Z,1008.47
2016-10-21T06:20:34.674Z,1008.46
2016-10-21T06:25:31.332Z,1008.54
2016-10-21T06:30:28.072Z,1008.56
2016-10-21T06:35:24.556Z,1008.57
2016-10-21T06:40:20.967Z,1008.56
2016-10-21T06:45:17.524Z,1008.58
2016-10-21T06:50:14.689Z,1008.59
2016-10-21T06:55:11.236Z,1008.57
2016-10-21T07:00:08.243Z,1008.53
2016-10-21T07:05:04.849Z,1008.64
2016-10-21T07:10:01.295Z,1008.55
2016-10-21T07:14:58.462Z,1008.56
2016-10-21T07:19:55.307Z,1008.57
2016-10-21T07:24:51.462Z,1008.48
2016-10-21T07:29:50.919Z,1008.61
2016-10-21T07:34:46.843Z,1008.61
2016-10-21T07:39:43.212Z,1008.60
2016-10-21T07:44:39.887Z,1008.61
2016-10-21T07:49:37.215Z,1008.63
2016-10-21T07:54:33.946Z,1008.64
2016-10-21T07:59:30.428Z,1008.75
2016-10-21T08:04:28.103Z,1008.75
2016-10-21T08:09:24.555Z,1008.67
2016-10-21T08:14:22.256Z,1008.69
2016-10-21T08:19:19.235Z,1008.66
2016-10-21T08:24:15.816Z,1008.69
2016-10-21T08:29:12.803Z,1008.69
2016-10-21T08:34:12.004Z,1008.71
2016-10-21T08:39:07.908Z,1008.68
2016-10-21T08:44:04.301Z,1008.61
2016-10-21T08:49:01.042Z,1008.55
2016-10-21T08:53:57.578Z,1008.54
2016-10-21T08:58:54.148Z,1008.65
2016-10-21T09:03:50.951Z,1008.74
2016-10-21T09:08:50.557Z,1008.69
2016-10-21T09:13:46.263Z,1008.69
2016-10-21T09:18:43.047Z,1008.79
2016-10-21T09:23:39.444Z,1008.71
2016-10-21T09:28:35.632Z,1008.66
2016-10-21T09:33:32.223Z,1008.71
2016-10-21T09:38:29.182Z,1008.70
2016-10-21T09:43:25.594Z,1008.72
2016-10-21T09:48:23.229Z,1008.69
2016-10-21T09:53:19.709Z,1008.69
2016-10-21T09:58:16.367Z,1008.70
2016-10-21T10:03:13.163Z,1008.74
2016-10-21T10:08:09.554Z,1008.60
2016-10-21T10:13:06.621Z,1008.67
2016-10-21T10:18:05.713Z,1008.69
2016-10-21T10:23:01.883Z,1008.56
2016-10-21T10:27:58.736Z,1008.58
2016-10-21T10:32:55.023Z,1008.48
2016-10-21T10:37:51.169Z,1008.38
2016-10-21T10:42:47.657Z,1008.40
2016-10-21T10:47:43.751Z,1008.43
2016-10-21T10:52:40.268Z,1008.38
2016-10-21T10:57:38.277Z,1008.30
2016-10-21T11:02:35.134Z,1008.36
2016-10-21T11:07:32.584Z,1008.29
2016-10-21T11:12:29.036Z,1008.13
2016-10-21T11:17:25.511Z,1008.13
2016-10-21T11:22:22.147Z,1008.10
2016-10-21T11:27:18.259Z,1008.19
2016-10-21T11:32:14.776Z,1008.07
2016-10-21T11:37:11.176Z,1007.97
2016-10-21T11:42:07.651Z,1008.05
2016-10-21T11:47:03.859Z,1007.93
2016-10-21T11:52:00.868Z,1007.86
2016-10-21T11:56:57.699Z,1007.82
2016-10-21T12:01:56.049Z,1007.71
2016-10-21T12:06:52.538Z,1007.62
2016-10-21T12:11:49.369Z,1007.60
2016-10-21T12:16:45.889Z,1007.66
2016-10-21T12:21:44.430Z,1007.62
2016-10-21T12:26:40.450Z,1007.56
2016-10-21T12:31:39.861Z,1007.62
2016-10-21T12:36:35.698Z,1007.58
2016-10-21T12:41:32.174Z,1007.61
2016-10-21T12:46:28.616Z,1007.52
2016-10-21T12:51:24.900Z,1007.50
2016-10-21T12:56:22.202Z,1007.55
2016-10-21T13:01:19.842Z,1007.48
2016-10-21T13:06:16.066Z,1007.43
2016-10-21T13:11:12.717Z,1007.44
2016-10-21T13:16:09.541Z,1007.39
2016-10-21T13:21:06.099Z,1007.42
2016-10-21T13:26:02.696Z,1007.43
2016-10-21T13:30:59.152Z,1007.46
2016-10-21T13:35:56.176Z,1007.35
2016-10-21T13:40:52.477Z,1007.39
2016-10-21T13:45:48.663Z,1007.38
2016-10-21T13:50:45.021Z,1007.35
2016-10-21T13:55:41.933Z,1007.30
2016-10-21T14:00:39.156Z,1007.31
2016-10-21T14:05:35.485Z,1007.26
2016-10-21T14:10:32.855Z,1007.17
2016-10-21T14:15:29.410Z,1007.24
2016-10-21T14:20:25.807Z,1007.23
2016-10-21T14:25:22.337Z,1007.29
2016-10-21T14:30:18.675Z,1007.21
2016-10-21T14:35:15.486Z,1007.19
2016-10-21T14:40:11.517Z,1007.25
2016-10-21T14:45:08.619Z,1007.21
2016-10-21T14:50:07.891Z,1007.23
2016-10-21T14:55:04.154Z,1007.24
2016-10-21T15:00:01.111Z,1007.30
2016-10-21T15:04:59.014Z,1007.13
2016-10-21T15:09:55.034Z,1007.15
2016-10-21T15:14:51.741Z,1007.06
2016-10-21T15:19:48.108Z,1006.97
2016-10-21T15:24:44.450Z,1006.96
2016-10-21T15:29:41.722Z,1006.89
2016-10-21T15:34:38.367Z,1006.85
2016-10-21T15:39:34.805Z,1006.98
2016-10-21T15:44:31.327Z,1006.84
2016-10-21T15:49:27.449Z,1006.80
2016-10-21T15:54:26.757Z,1006.72
2016-10-21T15:59:22.685Z,1006.65
2016-10-21T16:04:19.310Z,1006.57
2016-10-21T16:09:16.053Z,1006.54
2016-10-21T16:14:12.388Z,1006.56
2016-10-21T16:19:08.893Z,1006.59
2016-10-21T16:24:06.050Z,1006.57
2016-10-21T16:29:02.930Z,1006.52
2016-10-21T16:33:59.327Z,1006.59
2016-10-21T16:38:56.316Z,1006.64
2016-10-21T16:43:52.710Z,1006.60
2016-10-21T16:48:49.630Z,1006.63
2016-10-21T16:53:46.887Z,1006.56
2016-10-21T16:58:43.273Z,1006.53
2016-10-21T17:03:39.826Z,1006.47
2016-10-21T17:08:36.803Z,1006.50
2016-10-21T17:13:34.129Z,1006.56
2016-10-21T17:18:30.591Z,1006.49
2016-10-21T17:23:27.158Z,1006.47
2016-10-21T17:28:23.561Z,1006.33
2016-10-21T17:33:20.109Z,1006.37
2016-10-21T17:38:16.830Z,1006.33
2016-10-21T17:43:13.471Z,1006.28
2016-10-21T17:48:10.191Z,1006.39
2016-10-21T17:53:06.790Z,1006.43
2016-10-21T17:58:03.742Z,1006.27
2016-10-21T18:03:00.412Z,1006.28
2016-10-21T18:07:56.692Z,1006.34
2016-10-21T18:12:53.459Z,1006.31
2016-10-21T18:17:50.373Z,1006.34
2016-10-21T18:22:47.273Z,1006.28
2016-10-21T18:27:43.692Z,1006.32
2016-10-21T18:32:40.290Z,1006.26
2016-10-21T18:37:36.387Z,1006.31
2016-10-21T18:42:33.888Z,1006.36
2016-10-21T18:47:30.254Z,1006.31
2016-10-21T18:52:27.142Z,1006.29
2016-10-21T18:57:23.709Z,1006.34
2016-10-21T19:02:21.224Z,1006.33
2016-10-21T19:07:17.526Z,1006.31
2016-10-21T19:12:13.816Z,1006.30
2016-10-21T19:17:11.008Z,1006.28
2016-10-21T19:22:07.470Z,1006.20
2016-10-21T19:27:03.917Z,1006.28
2016-10-21T19:32:01.020Z,1006.15
2016-10-21T19:36:57.338Z,1006.30
2016-10-21T19:41:54.801Z,1006.25
2016-10-21T19:46:51.074Z,1006.18
2016-10-21T19:51:47.642Z,1006.21
2016-10-21T19:56:44.926Z,1006.25
2016-10-21T20:01:41.167Z,1006.11
2016-10-21T20:06:38.168Z,1006.17
2016-10-21T20:11:35.662Z,1006.13
2016-10-21T20:16:31.978Z,1006.10
2016-10-21T20:21:28.359Z,1006.14
2016-10-21T20:26:24.796Z,1006.18
2016-10-21T20:31:23.826Z,1006.21
2016-10-21T20:36:19.617Z,1006.09
2016-10-21T20:41:16.326Z,1006.11
2016-10-21T20:46:12.937Z,1006.18
2016-10-21T20:51:09.544Z,1006.22
2016-10-21T20:56:07.341Z,1006.17
2016-10-21T21:01:03.525Z,1006.15
2016-10-21T21:06:00.398Z,1006.19
2016-10-21T21:10:56.547Z,1006.09
2016-10-21T21:15:53.568Z,1006.10
2016-10-21T21:20:50.186Z,1006.08
2016-10-21T21:25:46.529Z,1006.02
2016-10-21T21:30:43.086Z,1006.06
2016-10-21T21:35:39.974Z,1006.09
2016-10-21T21:40:37.112Z,1006.05
2016-10-21T21:45:33.509Z,1005.95
2016-10-21T21:50:30.831Z,1006.03
2016-10-21T21:55:26.994Z,1005.90
2016-10-21T22:00:23.475Z,1006.06
2016-10-21T22:05:20.170Z,1006.01
2016-10-21T22:10:16.556Z,1005.95
2016-10-21T22:15:12.951Z,1005.99
2016-10-21T22:20:10.508Z,1005.94
2016-10-21T22:30:10.826Z,1005.94
2016-10-21T22:35:07.216Z,1005.87
2016-10-21T22:40:03.879Z,1005.86
2016-10-21T22:45:01.187Z,1005.81
2016-10-21T22:49:57.414Z,1005.78
2016-10-21T22:54:54.319Z,1005.84
2016-10-21T22:59:50.551Z,1005.83
2016-10-21T23:04:46.513Z,1005.87
2016-10-21T23:09:43.254Z,1005.83
2016-10-21T23:19:44.378Z,1005.83
2016-10-21T23:24:40.636Z,1005.82
2016-10-21T23:29:37.321Z,1005.75
2016-10-21T23:34:34.790Z,1005.85
2016-10-21T23:39:32.246Z,1005.77
2016-10-21T23:44:29.106Z,1005.74
2016-10-21T23:49:25.264Z,1005.72
2016-10-21T23:54:21.961Z,1005.71
2016-10-21T23:59:18.582Z,1005.75
